»·PEaware :: UAL1620 KPSP-KSFO

UAL1620 :: KPSP-KSFO

FLIGHT INFORMATION

Flight Status: Arrived
Operator:
United Airlines
More flights by this operator :: More flights under this callsign
Pilot: Michael C. (16705)
Aircraft: BOEING 737-800
(B738)
More flights by this aircraft type
Origin: KPSP Palm Springs Intl
United States
Destination: KSFO San Francisco Intl
United States
More flights between these airports :: More routes between these airports
Route: +CATH1 PSP V386 PMD AVE SERFR SERFR2
File this flight plan on PilotEdge
Remarks: PBN / A1B1C1D1L1O1S1 NAV / RNVD1E2A1 DOF / 171008 REG / N838NN EET / KZOA0038 RVR / 200 PER / C
Altitude:
(Current/Filed)
340ft
Speed:
(Current/Filed)
439kts
Departed: 08-Oct-17 01:52 PM
Arrived: 08-Oct-17 03:00 PM
Distance/Time
Traveled:
366nm/1:08
Distance/Time
To Go:
Arrived

Flight Plot

Page will automatically refresh every two minutes.


Map Options




Map Legend


Flown Route
Filed Route
Departure Airport
Arrival Airport
Navaid (VOR, NDB)
Fix

Horizontal Profiles

Position Reports

Time Latitude Longitude Heading Altitude Ground
Speed
08-Oct-17 13:26 33.823884 -116.506812 178 432ft 0kts
08-Oct-17 13:27 33.823884 -116.506812 178 432ft 0kts
08-Oct-17 13:28 33.823884 -116.506812 178 432ft 0kts
08-Oct-17 13:29 33.823884 -116.506812 178 432ft 0kts
08-Oct-17 13:30 33.823884 -116.506812 178 432ft 0kts
08-Oct-17 13:31 33.823884 -116.506812 178 432ft 0kts
08-Oct-17 13:32 33.823884 -116.506812 178 432ft 0kts
08-Oct-17 13:33 33.823884 -116.506812 178 432ft 0kts
08-Oct-17 13:34 33.823884 -116.506812 178 432ft 0kts
08-Oct-17 13:35 33.823884 -116.506812 178 432ft 0kts
08-Oct-17 13:36 33.823884 -116.506812 178 432ft 0kts
08-Oct-17 13:37 33.823884 -116.506812 178 432ft 0kts
08-Oct-17 13:38 33.823884 -116.506812 178 432ft 0kts
08-Oct-17 13:39 33.823884 -116.506812 178 432ft 0kts
08-Oct-17 13:40 33.823884 -116.506812 178 432ft 0kts
08-Oct-17 13:41 33.823884 -116.506812 178 432ft 0kts
08-Oct-17 13:42 33.824053 -116.506818 178 432ft 2kts
08-Oct-17 13:43 33.824697 -116.507271 112 432ft 2kts
08-Oct-17 13:44 33.824752 -116.507550 94 432ft 0kts
08-Oct-17 13:45 33.824752 -116.507549 94 432ft 0kts
08-Oct-17 13:46 33.824751 -116.507547 94 432ft 0kts
08-Oct-17 13:47 33.824751 -116.507546 94 432ft 0kts
08-Oct-17 13:48 33.824746 -116.507426 90 432ft 3kts
08-Oct-17 13:49 33.825623 -116.506166 0 432ft 6kts
08-Oct-17 13:50 33.828089 -116.508249 323 432ft 14kts
08-Oct-17 13:51 33.832100 -116.511904 323 432ft 20kts
08-Oct-17 13:52 33.835519 -116.515060 321 432ft 11kts
08-Oct-17 13:53 33.838965 -116.517498 323 432ft 14kts
08-Oct-17 13:54 33.839937 -116.517881 41 432ft 0kts
08-Oct-17 13:55 33.840318 -116.517403 60 432ft 9kts
08-Oct-17 13:56 33.828607 -116.506773 142 433ft 147kts
08-Oct-17 13:57 33.797692 -116.464744 113 2599ft 195kts
08-Oct-17 13:58 33.820183 -116.395355 31 4170ft 274kts
08-Oct-17 13:59 33.888775 -116.416318 314 6818ft 285kts
08-Oct-17 14:00 33.957615 -116.463778 339 7034ft 288kts
08-Oct-17 14:01 34.034060 -116.493812 340 7764ft 291kts
08-Oct-17 14:02 34.111847 -116.524239 339 10825ft 298kts
08-Oct-17 14:03 34.198188 -116.558077 339 12258ft 356kts
08-Oct-17 14:04 34.296747 -116.596765 339 14227ft 380kts
08-Oct-17 14:05 34.398782 -116.637025 338 16442ft 389kts
08-Oct-17 14:06 34.493591 -116.695295 304 18429ft 389kts
08-Oct-17 14:07 34.518616 -116.822816 277 20143ft 400kts
08-Oct-17 14:08 34.530607 -116.958555 277 21740ft 409kts
08-Oct-17 14:09 34.543559 -117.097008 278 23159ft 417kts
08-Oct-17 14:10 34.556820 -117.238346 277 24398ft 426kts
08-Oct-17 14:11 34.570221 -117.382970 278 25515ft 435kts
08-Oct-17 14:12 34.584058 -117.529941 278 26584ft 442kts
08-Oct-17 14:13 34.597531 -117.679925 277 27544ft 450kts
08-Oct-17 14:14 34.611091 -117.830606 278 28873ft 447kts
08-Oct-17 14:15 34.624203 -117.980551 278 30196ft 445kts
08-Oct-17 14:16 34.663957 -118.119774 301 31538ft 437kts
08-Oct-17 14:17 34.729255 -118.243182 303 32889ft 432kts
08-Oct-17 14:18 34.794688 -118.365140 304 33817ft 433kts
08-Oct-17 14:19 34.860666 -118.487341 304 33867ft 428kts
08-Oct-17 14:20 34.926027 -118.608642 304 33913ft 428kts
08-Oct-17 14:21 34.991296 -118.730387 304 33924ft 427kts
08-Oct-17 14:22 35.056121 -118.851785 304 33915ft 427kts
08-Oct-17 14:23 35.121097 -118.973883 303 33887ft 428kts
08-Oct-17 14:24 35.181205 -119.087265 303 33844ft 428kts
08-Oct-17 14:25 35.245731 -119.209385 303 33819ft 428kts
08-Oct-17 14:26 35.310338 -119.332083 303 33816ft 428kts
08-Oct-17 14:27 35.374616 -119.454587 303 33820ft 428kts
08-Oct-17 14:28 35.438932 -119.577600 303 33823ft 429kts
08-Oct-17 14:29 35.503569 -119.701249 303 33805ft 430kts
08-Oct-17 14:30 35.567820 -119.825099 303 33805ft 431kts
08-Oct-17 14:31 35.632912 -119.951360 302 33806ft 440kts
08-Oct-17 14:32 35.681542 -120.089243 292 33807ft 441kts
08-Oct-17 14:33 35.724877 -120.230475 292 33804ft 441kts
08-Oct-17 14:34 35.767348 -120.369297 292 33803ft 441kts
08-Oct-17 14:35 35.810418 -120.508735 292 33803ft 441kts
08-Oct-17 14:36 35.853555 -120.649854 292 33802ft 440kts
08-Oct-17 14:37 35.896611 -120.791659 292 33803ft 441kts
08-Oct-17 14:38 35.939350 -120.933205 292 33805ft 441kts
08-Oct-17 14:39 35.982300 -121.075353 292 33648ft 441kts
08-Oct-17 14:40 36.024549 -121.217017 292 30761ft 441kts
08-Oct-17 14:41 36.072818 -121.352207 311 28577ft 421kts
08-Oct-17 14:42 36.164563 -121.438821 326 26399ft 409kts
08-Oct-17 14:43 36.259013 -121.513205 325 24347ft 396kts
08-Oct-17 14:44 36.350891 -121.585322 325 22341ft 384kts
08-Oct-17 14:45 36.439634 -121.655232 325 20387ft 372kts
08-Oct-17 14:46 36.522880 -121.720770 325 19675ft 344kts
08-Oct-17 14:47 36.604770 -121.785512 325 17762ft 344kts
08-Oct-17 14:48 36.684553 -121.848887 325 16155ft 337kts
08-Oct-17 14:49 36.766730 -121.901042 342 14623ft 332kts
08-Oct-17 14:50 36.856619 -121.926373 345 13234ft 327kts
08-Oct-17 14:51 36.944385 -121.950850 345 11895ft 321kts
08-Oct-17 14:52 37.027424 -121.981826 341 10849ft 288kts
08-Oct-17 14:53 37.099273 -122.010335 342 9629ft 266kts
08-Oct-17 14:54 37.169890 -122.038104 343 8424ft 264kts
08-Oct-17 14:56 37.239442 -122.065465 343 7341ft 259kts
08-Oct-17 14:57 37.307508 -122.092221 343 6290ft 252kts
08-Oct-17 14:58 37.372544 -122.117807 344 5318ft 237kts
08-Oct-17 14:59 37.435115 -122.142381 344 4424ft 232kts
08-Oct-17 15:00 37.493783 -122.162412 349 3597ft 204kts
08-Oct-17 15:01 37.539550 -122.191415 310 2946ft 191kts
08-Oct-17 15:02 37.564780 -122.246576 301 1971ft 173kts
08-Oct-17 15:03 37.587014 -122.299475 300 1073ft 155kts
08-Oct-17 15:04 37.605173 -122.342707 298 317ft 129kts
08-Oct-17 15:05 37.618061 -122.373394 298 20ft 30kts
08-Oct-17 15:06 37.618930 -122.378786 261 20ft 10kts
08-Oct-17 15:06 37.619327 -122.381214 297 20ft 8kts
08-Oct-17 15:08 37.620796 -122.384722 296 20ft 10kts
08-Oct-17 15:08 37.621947 -122.387623 296 20ft 11kts
08-Oct-17 15:10 37.621544 -122.391525 206 20ft 13kts
08-Oct-17 15:10 37.619096 -122.390517 120 20ft 11kts
08-Oct-17 15:11 37.617972 -122.388464 139 20ft 1kts
08-Oct-17 15:12 37.617959 -122.388451 139 20ft 0kts

Navigation Log

Ident Type
1. KPSP Airport
2. PSP Navaid
3. YUCCA Fix
4. OKACO Fix
5. SOGGI Fix
6. APLES Fix
7. ZOREN Fix
8. PMD Navaid
9. AVE Navaid
10. KSFO Airport